Time;durP1;ratioP1;P1;durP2;ratioP2;P2;SDS_P1;SDS_P2;PMS_P1;PMS_P2;Temp;Humidity;BMP_temperature;BMP_pressure;BME280_temperature;BME280_humidity;BME280_pressure;Samples;Min_cycle;Max_cycle;Signal;HPM_P1;HPM_P2
2022/05/12 00:00:16;;;;;;;;;;;;;;;12.64;64.06;101282.81;6181275;23;19912;-78
2022/05/12 00:02:41;;;;;;;;;;;;;;;12.55;63.90;101276.53;6208886;23;19916;-80
2022/05/12 00:05:07;;;;;;;;;;;;;;;12.51;64.85;101282.41;6181243;23;19914;-79
2022/05/12 00:07:32;;;;;;;;;;;;;;;12.52;64.43;101279.53;6180669;23;19920;-80
2022/05/12 00:09:58;;;;;;;;;;;;;;;12.57;63.98;101273.66;6181474;23;20811;-80
2022/05/12 00:12:23;;;;;;;;;;;;;;;12.60;63.73;101281.47;6181228;23;19960;-80
2022/05/12 00:14:49;;;;;;;;;;;;;;;12.58;63.68;101269.97;6157305;23;19918;-79
2022/05/12 00:17:14;;;;;;;;;;;;;;;12.57;63.67;101273.66;6181923;23;19964;-80
2022/05/12 00:19:39;;;;;;;;;;;;;;;12.41;64.19;101272.56;6208157;23;19911;-79
2022/05/12 00:22:05;;;;;;;;;;;;;;;12.38;64.46;101266.63;6156096;23;19923;-78
2022/05/12 00:24:31;;;;;;;;;;;;;;;12.25;64.35;101267.06;6181330;22;19912;-80
2022/05/12 00:26:57;;;;;;;;;;;;;;;12.32;64.42;101270.81;6207680;23;19912;-80
2022/05/12 00:29:23;;;;;;;;;;;;;;;12.27;64.34;101270.44;6207862;23;19928;-79
2022/05/12 00:31:49;;;;;;;;;;;;;;;12.18;64.46;101266.84;6208058;23;19943;-79
2022/05/12 00:34:15;;;;;;;;;;;;;;;12.23;64.71;101269.91;6207697;23;19961;-81
2022/05/12 00:36:44;;;;;;;;;;;;;;;12.23;63.64;101263.69;6180291;23;20381;-79
2022/05/12 00:39:09;;;;;;;;;;;;;;;12.16;63.43;101263.44;6208077;23;19915;-80
2022/05/12 00:41:34;;;;;;;;;;;;;;;12.09;63.79;101269.63;6208586;23;19984;-78
2022/05/12 00:44:02;;;;;;;;;;;;;;;12.01;64.20;101265.00;6181419;23;19995;-79
2022/05/12 00:46:31;;;;;;;;;;;;;;;11.95;64.55;101265.63;6207559;23;19916;-81
2022/05/12 00:49:01;;;;;;;;;;;;;;;11.96;64.26;101264.63;6182307;23;19912;-81
2022/05/12 00:51:31;;;;;;;;;;;;;;;11.99;64.27;101261.63;6181334;23;19912;-83
2022/05/12 00:53:56;;;;;;;;;;;;;;;12.00;63.64;101260.63;6156914;23;20198;-84
2022/05/12 00:56:22;;;;;;;;;;;;;;;11.97;64.01;101267.16;6181449;23;19915;-80
2022/05/12 00:58:50;;;;;;;;;;;;;;;11.96;64.01;101262.78;6181702;23;19912;-81
2022/05/12 01:01:16;;;;;;;;;;;;;;;11.79;64.84;101259.06;6208394;23;19942;-80
2022/05/12 01:03:41;;;;;;;;;;;;;;;11.76;64.20;101253.97;6162298;22;19916;-79
2022/05/12 01:06:07;;;;;;;;;;;;;;;11.86;63.37;101261.97;6186437;23;19927;-79
2022/05/12 01:08:33;;;;;;;;;;;;;;;11.65;63.64;101269.53;6182555;23;19996;-80
2022/05/12 01:10:59;;;;;;;;;;;;;;;11.67;63.70;101275.63;6181622;23;19935;-79
2022/05/12 01:13:25;;;;;;;;;;;;;;;11.63;64.25;101261.59;6157064;23;19924;-80
2022/05/12 01:15:51;;;;;;;;;;;;;;;11.57;64.19;101268.44;6184210;23;19916;-80
2022/05/12 01:18:18;;;;;;;;;;;;;;;11.59;64.41;101271.84;6183164;23;19912;-79
2022/05/12 01:20:46;;;;;;;;;;;;;;;11.58;64.01;101270.13;6180971;23;19916;-78
2022/05/12 01:23:16;;;;;;;;;;;;;;;11.56;64.10;101266.75;6208173;23;19950;-79
2022/05/12 01:25:41;;;;;;;;;;;;;;;11.43;64.48;101266.28;6207562;23;19916;-81
2022/05/12 01:28:06;;;;;;;;;;;;;;;11.49;64.16;101265.66;6181214;23;19990;-79
2022/05/12 01:30:32;;;;;;;;;;;;;;;11.45;65.45;101269.69;6207983;23;19948;-77
2022/05/12 01:32:57;;;;;;;;;;;;;;;11.43;64.94;101277.06;6181048;23;19951;-78
2022/05/12 01:35:24;;;;;;;;;;;;;;;11.41;65.75;101273.66;6155197;23;20412;-77
2022/05/12 01:37:49;;;;;;;;;;;;;;;11.41;65.28;101279.03;6180757;23;19964;-79
2022/05/12 01:40:15;;;;;;;;;;;;;;;11.45;65.76;101275.06;6207398;23;19943;-81
2022/05/12 01:42:41;;;;;;;;;;;;;;;11.34;65.72;101269.88;6180722;23;19923;-79
2022/05/12 01:45:08;;;;;;;;;;;;;;;11.35;65.96;101269.72;6156720;23;19916;-80
2022/05/12 01:47:33;;;;;;;;;;;;;;;11.43;66.43;101271.66;6181768;23;19924;-79
2022/05/12 01:49:59;;;;;;;;;;;;;;;11.45;65.49;101269.69;6207664;23;19919;-80
2022/05/12 01:52:24;;;;;;;;;;;;;;;11.50;66.01;101271.91;6207805;23;20201;-78
2022/05/12 01:54:50;;;;;;;;;;;;;;;11.59;65.69;101269.16;6181476;23;19912;-79
2022/05/12 01:57:15;;;;;;;;;;;;;;;11.71;64.77;101269.78;6207268;23;19958;-80
2022/05/12 01:59:43;;;;;;;;;;;;;;;11.68;65.07;101263.81;6180715;23;19987;-78
2022/05/12 02:02:08;;;;;;;;;;;;;;;11.73;65.31;101272.28;6207296;23;19983;-79
2022/05/12 02:04:33;;;;;;;;;;;;;;;11.84;65.27;101261.28;6180385;23;19939;-80
2022/05/12 02:06:59;;;;;;;;;;;;;;;12.02;65.34;101261.31;6181467;23;19912;-79
2022/05/12 02:09:24;;;;;;;;;;;;;;;12.12;64.77;101264.75;6180855;23;20271;-79
2022/05/12 02:11:49;;;;;;;;;;;;;;;12.23;64.80;101271.75;6206783;23;19912;-79
2022/05/12 02:14:15;;;;;;;;;;;;;;;12.31;64.66;101262.88;6181948;23;19985;-80
2022/05/12 02:16:41;;;;;;;;;;;;;;;12.41;64.57;101261.78;6157004;23;19923;-79
2022/05/12 02:19:06;;;;;;;;;;;;;;;12.57;63.53;101273.66;6180242;23;19912;-79
2022/05/12 02:21:32;;;;;;;;;;;;;;;12.56;63.29;101272.00;6156025;22;19920;-79
2022/05/12 02:23:58;;;;;;;;;;;;;;;12.57;63.29;101269.13;6181116;23;20333;-79
2022/05/12 02:26:24;;;;;;;;;;;;;;;12.57;63.16;101266.44;6207420;23;20384;-77
2022/05/12 02:28:49;;;;;;;;;;;;;;;12.56;62.58;101269.28;6207416;23;19924;-80
2022/05/12 02:31:14;;;;;;;;;;;;;;;12.45;62.85;101271.25;6155884;23;19916;-79
2022/05/12 02:33:40;;;;;;;;;;;;;;;12.30;63.39;101262.03;6180482;23;19940;-80
2022/05/12 02:36:07;;;;;;;;;;;;;;;12.15;63.63;101264.47;6154752;23;19924;-79
2022/05/12 02:38:32;;;;;;;;;;;;;;;12.10;63.83;101269.44;6205766;23;19912;-80
2022/05/12 02:40:57;;;;;;;;;;;;;;;12.11;64.07;101273.03;6180864;22;19924;-80
2022/05/12 02:43:26;;;;;;;;;;;;;;;12.04;63.94;101270.94;6178134;23;20363;-80
2022/05/12 02:45:54;;;;;;;;;;;;;;;12.16;64.14;101270.69;6179468;23;20360;-79
2022/05/12 02:48:22;;;;;;;;;;;;;;;12.19;64.31;101267.69;6207444;23;19935;-78
2022/05/12 02:50:47;;;;;;;;;;;;;;;12.08;64.17;101276.00;6206307;23;19912;-79
2022/05/12 02:53:14;;;;;;;;;;;;;;;11.87;65.42;101274.50;6181316;23;20015;-78
2022/05/12 02:55:39;;;;;;;;;;;;;;;11.84;65.15;101280.16;6180514;23;19969;-79
2022/05/12 02:58:04;;;;;;;;;;;;;;;11.62;65.96;101279.59;6207360;23;19924;-79
2022/05/12 03:00:33;;;;;;;;;;;;;;;11.66;66.69;101293.63;6206867;23;19920;-79
2022/05/12 03:02:59;;;;;;;;;;;;;;;11.40;66.72;101290.78;6208213;23;19912;-80
2022/05/12 03:05:24;;;;;;;;;;;;;;;11.49;66.69;101297.97;6207132;23;19934;-79
2022/05/12 03:07:51;;;;;;;;;;;;;;;11.47;66.90;101296.44;6156407;23;19919;-77
2022/05/12 03:10:16;;;;;;;;;;;;;;;11.34;68.00;101288.72;6207304;23;19912;-79
2022/05/12 03:12:41;;;;;;;;;;;;;;;11.32;67.60;101296.09;6206565;23;19951;-79
2022/05/12 03:15:07;;;;;;;;;;;;;;;11.50;67.10;101297.00;6180278;23;19915;-79
2022/05/12 03:17:32;;;;;;;;;;;;;;;11.44;67.61;101300.28;6181218;23;19955;-81
2022/05/12 03:19:57;;;;;;;;;;;;;;;11.52;67.21;101296.81;6157353;23;20398;-77
2022/05/12 03:22:23;;;;;;;;;;;;;;;11.59;67.21;101290.69;6209935;23;19948;-78
2022/05/12 03:24:48;;;;;;;;;;;;;;;11.60;66.84;101295.06;6209954;23;19919;-78
2022/05/12 03:27:14;;;;;;;;;;;;;;;11.58;67.09;101294.38;6213673;23;20004;-78
2022/05/12 03:29:39;;;;;;;;;;;;;;;11.65;67.28;101291.91;6208626;23;19912;-80
2022/05/12 03:32:10;;;;;;;;;;;;;;;11.72;67.02;101290.31;6179957;23;19969;-81
2022/05/12 03:34:35;;;;;;;;;;;;;;;11.79;66.85;101293.25;6157598;23;20328;-78
2022/05/12 03:37:00;;;;;;;;;;;;;;;11.88;66.54;101295.03;6208293;23;19919;-78
2022/05/12 03:39:26;;;;;;;;;;;;;;;11.90;66.67;101301.13;6207873;23;20408;-77
2022/05/12 03:41:51;;;;;;;;;;;;;;;11.88;66.71;101300.44;6182282;23;19920;-76
2022/05/12 03:47:02;;;;;;;;;;;;;;;12.04;66.42;101302.44;6206190;23;20004;-78
2022/05/12 03:49:27;;;;;;;;;;;;;;;12.08;66.19;101302.97;6204149;23;19930;-79
2022/05/12 03:51:52;;;;;;;;;;;;;;;12.09;66.45;101310.06;6178178;23;19990;-81
2022/05/12 03:54:19;;;;;;;;;;;;;;;12.22;65.75;101303.28;6176660;22;20182;-79
2022/05/12 03:56:45;;;;;;;;;;;;;;;12.36;65.50;101312.66;6204104;23;19916;-79
2022/05/12 03:59:10;;;;;;;;;;;;;;;12.35;65.61;101310.94;6205349;23;19912;-80
2022/05/12 04:01:36;;;;;;;;;;;;;;;12.37;65.51;101318.88;6205385;23;19912;-81
2022/05/12 04:04:02;;;;;;;;;;;;;;;12.45;65.16;101319.81;6177355;23;20261;-78
2022/05/12 04:06:28;;;;;;;;;;;;;;;12.41;65.26;101329.19;6205505;23;20402;-81
2022/05/12 04:08:53;;;;;;;;;;;;;;;12.48;65.03;101326.72;6177899;23;19922;-79
2022/05/12 04:11:19;;;;;;;;;;;;;;;12.63;64.59;101329.69;6205735;23;20381;-77
2022/05/12 04:13:44;;;;;;;;;;;;;;;12.56;64.70;101332.16;6207180;23;20237;-77
2022/05/12 04:16:10;;;;;;;;;;;;;;;12.64;64.69;101328.66;6206923;23;20190;-80
2022/05/12 04:18:35;;;;;;;;;;;;;;;12.67;64.66;101323.81;6181638;23;19927;-81
2022/05/12 04:21:01;;;;;;;;;;;;;;;12.89;64.19;101327.81;6208125;23;19915;-77
2022/05/12 04:23:27;;;;;;;;;;;;;;;13.00;63.91;101340.22;6207975;23;20376;-78
2022/05/12 04:25:53;;;;;;;;;;;;;;;13.17;63.38;101338.44;6206884;23;19955;-78
2022/05/12 04:28:19;;;;;;;;;;;;;;;13.37;62.90;101343.59;6208671;23;20343;-79
2022/05/12 04:30:45;;;;;;;;;;;;;;;13.51;62.39;101346.56;6179604;23;20267;-79
2022/05/12 04:35:54;;;;;;;;;;;;;;;14.67;59.11;101352.97;6207445;23;19918;-77
2022/05/12 04:38:22;;;;;;;;;;;;;;;15.19;57.23;101355.22;6207050;23;19947;-78
2022/05/12 04:40:51;;;;;;;;;;;;;;;15.56;55.75;101348.28;6181255;23;19966;-77
2022/05/12 04:43:16;;;;;;;;;;;;;;;15.99;54.69;101333.34;6205982;23;19919;-78
2022/05/12 04:45:43;;;;;;;;;;;;;;;16.38;53.83;101342.38;6205716;23;19912;-77
2022/05/12 04:48:08;;;;;;;;;;;;;;;16.63;53.02;101335.69;6206949;23;19916;-78
2022/05/12 04:50:34;;;;;;;;;;;;;;;16.85;52.65;101339.38;6180793;22;20314;-78
2022/05/12 04:53:01;;;;;;;;;;;;;;;17.06;51.70;101341.38;6181274;23;19912;-77
2022/05/12 04:55:26;;;;;;;;;;;;;;;17.40;50.78;101342.69;6207625;23;19912;-77
2022/05/12 04:57:55;;;;;;;;;;;;;;;17.58;50.33;101341.44;6155614;23;19912;-78
2022/05/12 05:00:22;;;;;;;;;;;;;;;18.02;49.07;101341.31;6181917;23;19965;-78
2022/05/12 05:02:47;;;;;;;;;;;;;;;18.23;48.78;101339.66;6181186;23;19961;-79
2022/05/12 05:05:13;;;;;;;;;;;;;;;18.24;49.05;101344.91;6206996;23;20246;-77
2022/05/12 05:07:38;;;;;;;;;;;;;;;18.30;48.81;101344.13;6180827;23;19912;-76
2022/05/12 05:10:04;;;;;;;;;;;;;;;18.55;48.12;101344.56;6207647;23;19912;-76
2022/05/12 05:12:29;;;;;;;;;;;;;;;18.76;47.71;101349.16;6156262;23;19916;-77
2022/05/12 05:14:55;;;;;;;;;;;;;;;19.06;46.98;101348.06;6155759;22;19917;-77
2022/05/12 05:17:22;;;;;;;;;;;;;;;19.36;46.52;101348.66;6205904;23;19951;-78
2022/05/12 05:19:49;;;;;;;;;;;;;;;19.52;45.91;101356.50;6207232;23;19912;-75
2022/05/12 05:22:14;;;;;;;;;;;;;;;19.81;45.54;101360.00;6205991;23;20166;-77
2022/05/12 05:24:42;;;;;;;;;;;;;;;19.86;45.39;101360.22;6156077;23;20328;-78
2022/05/12 05:27:08;;;;;;;;;;;;;;;20.18;44.76;101358.63;6208126;23;19912;-77
2022/05/12 05:29:33;;;;;;;;;;;;;;;20.23;44.84;101349.81;6181782;23;19911;-77
2022/05/12 05:31:58;;;;;;;;;;;;;;;20.57;44.31;101354.25;6207248;23;20342;-76
2022/05/12 05:34:24;;;;;;;;;;;;;;;20.83;43.82;101350.66;6207764;23;19916;-77
2022/05/12 05:36:49;;;;;;;;;;;;;;;21.17;43.32;101356.94;6181011;23;19911;-77
2022/05/12 05:39:25;;;;;;;;;;;;;;;21.20;42.86;101355.66;6215379;23;19908;-77
2022/05/12 05:41:50;;;;;;;;;;;;;;;21.37;42.54;101361.50;6208554;23;19999;-76
2022/05/12 05:44:15;;;;;;;;;;;;;;;21.58;41.98;101357.66;6208271;23;19939;-77
2022/05/12 05:46:41;;;;;;;;;;;;;;;21.94;41.70;101354.34;6182057;22;20008;-76
2022/05/12 05:49:07;;;;;;;;;;;;;;;22.26;41.23;101360.66;6180522;23;19912;-79
2022/05/12 05:54:17;;;;;;;;;;;;;;;22.71;40.29;101352.31;6184101;23;19919;-79
2022/05/12 05:56:43;;;;;;;;;;;;;;;22.75;40.07;101361.75;6180816;23;20317;-81
2022/05/12 05:59:08;;;;;;;;;;;;;;;22.32;40.79;101357.06;6180261;23;19916;-80
2022/05/12 06:01:34;;;;;;;;;;;;;;;22.60;40.68;101363.16;6206123;23;20302;-83
2022/05/12 06:03:59;;;;;;;;;;;;;;;23.06;40.15;101360.03;6207374;23;19912;-81
2022/05/12 06:06:28;;;;;;;;;;;;;;;23.11;39.88;101360.19;6180641;23;19912;-84
2022/05/12 06:08:53;;;;;;;;;;;;;;;23.19;40.44;101359.03;6181053;23;19927;-82
2022/05/12 06:11:18;;;;;;;;;;;;;;;23.43;39.24;101364.66;6207531;23;19921;-81
2022/05/12 06:13:44;;;;;;;;;;;;;;;23.25;39.83;101360.00;6155434;22;19911;-84
2022/05/12 06:16:10;;;;;;;;;;;;;;;23.63;39.10;101357.03;6155662;22;20273;-87
2022/05/12 06:18:36;;;;;;;;;;;;;;;23.91;39.07;101363.88;6158002;23;19919;-85
2022/05/12 06:21:04;;;;;;;;;;;;;;;24.20;38.25;101362.19;6180425;23;20371;-79
2022/05/12 06:23:29;;;;;;;;;;;;;;;24.52;38.38;101357.25;6157069;22;19951;-90
2022/05/12 06:25:55;;;;;;;;;;;;;;;24.82;37.60;101354.41;6184663;23;19912;-87
2022/05/12 06:28:20;;;;;;;;;;;;;;;24.90;37.35;101355.97;6207503;23;20321;-80
2022/05/12 06:30:46;;;;;;;;;;;;;;;24.80;37.28;101350.25;6184037;23;20355;-84
2022/05/12 06:33:18;;;;;;;;;;;;;;;25.32;36.86;101347.56;6206955;23;19943;-84
2022/05/12 06:35:43;;;;;;;;;;;;;;;25.39;36.58;101356.53;6156783;23;19916;-85
2022/05/12 06:38:10;;;;;;;;;;;;;;;25.88;36.04;101353.41;6182141;23;19911;-82
2022/05/12 06:40:35;;;;;;;;;;;;;;;25.81;35.63;101348.03;6181585;23;19912;-85
2022/05/12 06:43:05;;;;;;;;;;;;;;;26.02;35.66;101351.19;6181322;23;19951;-85
2022/05/12 06:45:30;;;;;;;;;;;;;;;26.55;35.71;101347.19;6209168;23;19918;-84
2022/05/12 06:47:56;;;;;;;;;;;;;;;26.91;34.54;101348.56;6208555;23;20319;-82
2022/05/12 06:50:26;;;;;;;;;;;;;;;27.26;33.98;101346.59;6209123;23;19968;-80
2022/05/12 06:52:53;;;;;;;;;;;;;;;27.54;33.19;101354.69;6157326;23;19912;-82
2022/05/12 06:55:19;;;;;;;;;;;;;;;27.74;32.88;101354.06;6208470;23;19920;-81
2022/05/12 06:57:46;;;;;;;;;;;;;;;28.03;32.26;101351.09;6182230;23;19991;-83
2022/05/12 07:00:16;;;;;;;;;;;;;;;28.04;31.93;101349.19;6157260;22;19916;-78
2022/05/12 07:02:42;;;;;;;;;;;;;;;28.20;31.84;101349.06;6183451;23;19995;-79
2022/05/12 07:05:09;;;;;;;;;;;;;;;28.33;31.68;101347.81;6208808;23;19996;-77
2022/05/12 07:07:35;;;;;;;;;;;;;;;28.47;30.87;101355.66;6182199;23;19912;-80
2022/05/12 07:10:03;;;;;;;;;;;;;;;28.67;30.62;101349.47;6180819;23;19961;-80
2022/05/12 07:12:36;;;;;;;;;;;;;;;28.71;29.79;101348.69;6184295;23;19939;-90
2022/05/12 07:15:06;;;;;;;;;;;;;;;29.17;29.52;101346.22;6184900;23;19965;-91
2022/05/12 07:17:33;;;;;;;;;;;;;;;29.21;29.04;101340.97;6145502;23;19913;-91
2022/05/12 07:28:15;;;;;;;;;;;;;;;29.92;28.47;101347.88;6136270;23;19919;-90
2022/05/12 07:33:25;;;;;;;;;;;;;;;29.48;28.70;101343.59;6153096;23;19974;-89
2022/05/12 07:35:50;;;;;;;;;;;;;;;29.55;28.37;101341.41;6123216;23;19920;-86
2022/05/12 07:38:20;;;;;;;;;;;;;;;29.61;28.51;101343.06;6130963;23;19909;-90
2022/05/12 07:40:50;;;;;;;;;;;;;;;29.84;27.98;101352.03;6165528;22;19920;-89
2022/05/12 07:43:20;;;;;;;;;;;;;;;29.97;27.91;101348.75;6100363;23;19932;-88
2022/05/12 07:45:46;;;;;;;;;;;;;;;30.24;27.35;101344.88;6150186;23;19913;-90
2022/05/12 07:48:13;;;;;;;;;;;;;;;30.36;27.32;101348.25;6173091;22;19912;-90
2022/05/12 07:50:39;;;;;;;;;;;;;;;30.61;26.70;101339.06;6159008;23;19973;-89
2022/05/12 07:53:07;;;;;;;;;;;;;;;30.41;26.98;101331.59;6158964;23;19950;-89
2022/05/12 07:55:36;;;;;;;;;;;;;;;30.96;26.15;101334.59;6211321;23;19918;-91
2022/05/12 07:58:04;;;;;;;;;;;;;;;30.95;26.18;101337.66;6209827;23;20333;-90
2022/05/12 08:00:30;;;;;;;;;;;;;;;30.57;26.82;101342.69;6210159;23;19991;-90
2022/05/12 08:02:57;;;;;;;;;;;;;;;31.32;25.51;101332.53;6187247;23;19916;-91
2022/05/12 08:05:24;;;;;;;;;;;;;;;32.01;24.52;101332.75;6211179;22;19912;-91
2022/05/12 08:07:51;;;;;;;;;;;;;;;32.34;24.18;101335.84;6209659;23;19990;-90
2022/05/12 08:10:21;;;;;;;;;;;;;;;32.59;23.78;101329.22;6184789;23;19947;-89
2022/05/12 08:13:00;;;;;;;;;;;;;;;32.97;23.47;101326.63;6210932;23;19920;-90
2022/05/12 08:15:26;;;;;;;;;;;;;;;33.43;22.77;101329.72;6187747;23;20519;-91
2022/05/12 08:17:53;;;;;;;;;;;;;;;33.57;22.76;101327.03;6211365;23;19923;-88
2022/05/12 08:20:20;;;;;;;;;;;;;;;33.70;22.39;101321.84;6184902;23;19916;-91
2022/05/12 08:22:47;;;;;;;;;;;;;;;33.87;22.32;101322.13;6161262;23;20090;-91
2022/05/12 08:25:12;;;;;;;;;;;;;;;33.55;22.86;101325.63;6183091;23;20237;-89
2022/05/12 08:27:38;;;;;;;;;;;;;;;34.20;21.80;101314.66;6183574;23;20434;-89
2022/05/12 08:30:16;;;;;;;;;;;;;;;34.74;21.77;101314.28;6171774;23;19930;-89
2022/05/12 08:32:43;;;;;;;;;;;;;;;34.90;21.11;101315.66;6225335;23;19991;-91
2022/05/12 08:35:08;;;;;;;;;;;;;;;34.36;21.67;101317.19;6185006;23;19916;-90
2022/05/12 08:37:41;;;;;;;;;;;;;;;34.48;21.50;101315.56;6188375;23;19993;-89
2022/05/12 08:40:08;;;;;;;;;;;;;;;34.16;21.39;101313.63;6220507;22;19912;-88
2022/05/12 08:42:36;;;;;;;;;;;;;;;34.73;21.44;101315.44;6203468;23;19920;-89
2022/05/12 08:45:09;;;;;;;;;;;;;;;34.76;21.21;101320.41;6213346;22;20317;-92
2022/05/12 08:47:38;;;;;;;;;;;;;;;35.08;20.82;101311.94;6218095;22;19919;-90
2022/05/12 08:50:06;;;;;;;;;;;;;;;35.52;20.09;101309.66;6196629;23;20625;-90
2022/05/12 08:52:50;;;;;;;;;;;;;;;35.18;20.11;101310.91;6212077;23;19973;-89
2022/05/12 08:55:16;;;;;;;;;;;;;;;35.70;19.14;101305.88;6200742;23;19915;-90
2022/05/12 08:58:02;;;;;;;;;;;;;;;35.67;19.50;101309.31;6229714;22;19900;-91
2022/05/12 09:00:33;;;;;;;;;;;;;;;35.59;19.32;101306.38;6223091;23;20253;-91
2022/05/12 09:03:09;;;;;;;;;;;;;;;36.31;18.62;101306.34;6184441;23;19987;-86
2022/05/12 09:05:42;;;;;;;;;;;;;;;35.73;18.41;101298.84;6211194;22;19912;-89
2022/05/12 09:08:17;;;;;;;;;;;;;;;36.66;18.00;101303.78;6159518;23;20329;-88
2022/05/12 09:11:04;;;;;;;;;;;;;;;35.78;18.23;101295.91;6160390;22;19916;-89
2022/05/12 09:13:50;;;;;;;;;;;;;;;36.38;17.87;101296.69;6183486;23;19912;-90
2022/05/12 09:16:24;;;;;;;;;;;;;;;36.60;17.00;101299.47;6159971;23;20252;-89
2022/05/12 09:18:59;;;;;;;;;;;;;;;37.62;16.46;101292.06;6180344;23;20337;-89
2022/05/12 09:21:36;;;;;;;;;;;;;;;37.83;15.98;101298.66;6157587;22;19931;-90
2022/05/12 09:24:09;;;;;;;;;;;;;;;37.62;15.62;101292.06;6211652;23;19908;-87
2022/05/12 09:26:44;;;;;;;;;;;;;;;37.41;15.96;101286.22;6183072;23;19912;-88
2022/05/12 09:29:19;;;;;;;;;;;;;;;36.95;16.53;101289.25;6187595;23;19915;-91
2022/05/12 09:31:52;;;;;;;;;;;;;;;36.81;16.85;101296.09;6194115;23;19911;-92
2022/05/12 09:34:37;;;;;;;;;;;;;;;36.46;16.64;101291.13;6191066;23;19908;-92
2022/05/12 09:37:16;;;;;;;;;;;;;;;36.81;16.81;101290.50;6197144;22;19912;-92
2022/05/12 09:40:08;;;;;;;;;;;;;;;37.49;15.58;101291.84;6181007;23;19911;-86
2022/05/12 09:42:42;;;;;;;;;;;;;;;38.52;14.47;101285.72;6219568;23;19916;-88
2022/05/12 09:45:19;;;;;;;;;;;;;;;39.26;13.88;101279.53;6213065;23;19916;-89
2022/05/12 09:47:47;;;;;;;;;;;;;;;40.05;13.68;101287.41;6208960;22;19947;-85
2022/05/12 09:50:28;;;;;;;;;;;;;;;39.79;13.54;101288.44;6192108;23;19990;-90
2022/05/12 09:52:57;;;;;;;;;;;;;;;39.62;13.85;101280.97;6227386;23;19924;-87
2022/05/12 09:55:24;;;;;;;;;;;;;;;39.86;13.43;101271.84;6231883;23;19919;-92
2022/05/12 09:58:14;;;;;;;;;;;;;;;41.06;12.72;101280.41;6208966;22;19912;-93
2022/05/12 10:01:10;;;;;;;;;;;;;;;41.07;12.11;101267.94;6214235;22;19916;-81
2022/05/12 10:09:17;;;;;;;;;;;;;;;39.34;12.63;101269.41;6209142;23;20292;-86
2022/05/12 10:12:06;;;;;;;;;;;;;;;40.19;12.26;101270.19;6209777;23;19916;-86
2022/05/12 10:14:43;;;;;;;;;;;;;;;39.63;12.81;101248.03;6181700;23;19908;-83
2022/05/12 10:17:23;;;;;;;;;;;;;;;38.00;14.02;101256.59;6212699;22;19923;-87
2022/05/12 10:19:49;;;;;;;;;;;;;;;38.98;12.70;101247.50;6178682;22;19988;-88
2022/05/12 10:22:23;;;;;;;;;;;;;;;39.38;12.10;101256.31;6183623;23;20337;-87
2022/05/12 10:24:55;;;;;;;;;;;;;;;38.19;13.13;101255.41;6164946;22;19924;-90
2022/05/12 10:27:24;;;;;;;;;;;;;;;38.49;12.62;101247.03;6184497;23;20265;-87
2022/05/12 10:30:05;;;;;;;;;;;;;;;36.70;13.29;101254.38;6182649;23;19919;-83
2022/05/12 10:32:56;;;;;;;;;;;;;;;37.67;13.07;101252.63;6210405;23;19912;-86
2022/05/12 10:35:31;;;;;;;;;;;;;;;38.32;12.82;101245.91;6121421;23;19913;-83
2022/05/12 10:38:07;;;;;;;;;;;;;;;37.90;15.57;101251.28;6209532;23;19977;-84
2022/05/12 10:40:43;;;;;;;;;;;;;;;38.88;15.47;101248.69;6210094;23;19927;-83
2022/05/12 10:43:21;;;;;;;;;;;;;;;40.78;13.98;101240.84;6189682;22;20001;-85
2022/05/12 10:45:55;;;;;;;;;;;;;;;41.47;14.10;101247.47;6187390;23;20324;-86
2022/05/12 10:48:22;;;;;;;;;;;;;;;39.91;12.85;101241.84;6183057;23;19911;-84
2022/05/12 10:51:02;;;;;;;;;;;;;;;41.03;12.27;101242.47;6210658;23;19995;-87
2022/05/12 10:53:27;;;;;;;;;;;;;;;40.32;11.30;101242.91;6212513;23;19911;-90
2022/05/12 10:55:53;;;;;;;;;;;;;;;39.13;11.79;101234.84;6214591;23;20009;-93
2022/05/12 10:58:28;;;;;;;;;;;;;;;40.29;11.46;101236.78;6214388;23;20318;-89
2022/05/12 11:00:57;;;;;;;;;;;;;;;41.20;13.02;101246.22;6222067;23;20255;-95
2022/05/12 11:03:57;;;;;;;;;;;;;;;41.38;12.57;101235.50;6185359;23;19908;-90
2022/05/12 11:06:31;;;;;;;;;;;;;;;39.81;15.28;101229.03;6165633;23;19983;-88
2022/05/12 11:08:59;;;;;;;;;;;;;;;35.80;18.78;101237.69;6189549;23;20336;-90
2022/05/12 11:11:27;;;;;;;;;;;;;;;35.80;18.99;101242.44;6206418;23;20405;-92
2022/05/12 11:14:02;;;;;;;;;;;;;;;35.20;19.16;101244.38;6209511;23;19912;-90
2022/05/12 11:16:34;;;;;;;;;;;;;;;33.18;21.63;101238.09;6210645;23;19916;-89
2022/05/12 11:19:01;;;;;;;;;;;;;;;32.61;22.72;101226.78;6156471;23;19912;-87
2022/05/12 11:21:31;;;;;;;;;;;;;;;32.84;22.27;101224.31;6213878;23;19912;-87
2022/05/12 11:24:05;;;;;;;;;;;;;;;31.37;24.03;101228.06;6187395;23;19908;-90
2022/05/12 11:26:48;;;;;;;;;;;;;;;31.49;24.06;101231.34;6212614;23;19979;-91
2022/05/12 11:32:20;;;;;;;;;;;;;;;30.46;24.42;101217.88;6209323;23;19917;-85
2022/05/12 11:34:48;;;;;;;;;;;;;;;30.15;25.02;101219.81;6209941;23;20002;-86
2022/05/12 11:37:38;;;;;;;;;;;;;;;30.68;24.49;101223.06;6215377;22;19912;-84
2022/05/12 11:40:08;;;;;;;;;;;;;;;29.52;25.53;101211.72;6183666;22;19919;-90
2022/05/12 11:45:42;;;;;;;;;;;;;;;29.79;24.67;101203.22;6133044;23;19924;-90
2022/05/12 11:48:18;;;;;;;;;;;;;;;29.50;24.65;101208.44;6107186;23;19952;-93
2022/05/12 11:50:45;;;;;;;;;;;;;;;28.75;25.05;101205.94;6141450;23;19924;-89
2022/05/12 11:53:23;;;;;;;;;;;;;;;28.32;26.07;101207.88;6110322;23;19959;-89
2022/05/12 11:56:03;;;;;;;;;;;;;;;28.33;25.70;101217.00;6140632;23;19918;-92
2022/05/12 11:58:28;;;;;;;;;;;;;;;28.38;25.13;101201.28;6211838;23;19916;-95
2022/05/12 12:00:54;;;;;;;;;;;;;;;28.45;25.37;101192.75;6185474;23;19918;-93
2022/05/12 12:03:20;;;;;;;;;;;;;;;28.92;25.33;101194.66;6188454;23;19990;-89
2022/05/12 12:05:51;;;;;;;;;;;;;;;28.96;24.96;101194.94;6186733;23;19908;-92
2022/05/12 12:08:32;;;;;;;;;;;;;;;28.60;25.13;101192.03;6189492;23;19912;-92
2022/05/12 12:11:14;;;;;;;;;;;;;;;28.46;25.58;101197.22;6211664;23;19923;-92
2022/05/12 12:13:40;;;;;;;;;;;;;;;28.41;26.14;101197.97;6213388;23;19908;-91
2022/05/12 12:16:15;;;;;;;;;;;;;;;28.27;26.64;101185.72;6202628;23;19973;-88
2022/05/12 12:18:40;;;;;;;;;;;;;;;27.78;26.62;101185.88;6209950;23;19935;-85
2022/05/12 12:21:24;;;;;;;;;;;;;;;28.05;26.51;101168.44;6209212;23;20324;-89
2022/05/12 12:23:57;;;;;;;;;;;;;;;28.17;26.02;101174.63;6210962;23;20452;-93
2022/05/12 12:26:32;;;;;;;;;;;;;;;28.06;26.38;101167.34;6217766;23;19963;-89
2022/05/12 12:29:04;;;;;;;;;;;;;;;28.02;26.88;101166.22;6190297;23;19943;-90
2022/05/12 12:31:47;;;;;;;;;;;;;;;27.94;26.58;101156.50;6210158;23;19919;-89
2022/05/12 12:34:17;;;;;;;;;;;;;;;27.60;27.68;101155.91;6187745;23;20410;-88
2022/05/12 12:36:51;;;;;;;;;;;;;;;27.50;27.41;101160.22;6195287;22;19928;-94
2022/05/12 12:39:38;;;;;;;;;;;;;;;27.53;27.02;101154.19;6231150;22;19961;-92
2022/05/12 12:42:22;;;;;;;;;;;;;;;27.41;27.23;101156.28;6277588;22;19922;-95
2022/05/12 12:44:54;;;;;;;;;;;;;;;27.13;27.32;101155.41;6355534;22;19923;-91
2022/05/12 12:47:20;;;;;;;;;;;;;;;26.93;27.57;101156.03;6358421;22;19898;-94
2022/05/12 12:49:50;;;;;;;;;;;;;;;27.12;27.27;101152.94;6356120;22;19958;-93
2022/05/12 12:52:17;;;;;;;;;;;;;;;26.89;27.59;101154.88;6349965;22;19933;-94
2022/05/12 12:57:51;;;;;;;;;;;;;;;27.17;27.33;101145.53;6340036;22;19921;-91
2022/05/12 13:00:23;;;;;;;;;;;;;;;26.91;27.36;101138.91;6342248;22;20349;-92
2022/05/12 13:03:05;;;;;;;;;;;;;;;26.85;27.22;101141.84;6343565;22;19906;-89
2022/05/12 13:05:33;;;;;;;;;;;;;;;26.97;27.01;101134.25;6342364;22;19934;-91
2022/05/12 13:08:02;;;;;;;;;;;;;;;27.22;27.07;101124.63;6313071;22;19918;-89
2022/05/12 13:10:32;;;;;;;;;;;;;;;26.93;26.90;101133.13;6312551;22;19930;-88
2022/05/12 13:13:01;;;;;;;;;;;;;;;26.87;26.62;101139.66;6335697;22;20049;-87
2022/05/12 13:15:33;;;;;;;;;;;;;;;26.59;26.51;101136.03;6334986;22;20027;-85
2022/05/12 13:18:02;;;;;;;;;;;;;;;26.43;26.99;101125.84;6335449;22;20255;-88